createdAt,value
2023-04-13T00:01:11.792Z,2.90
2023-04-13T00:03:47.355Z,2.90
2023-04-13T00:06:19.869Z,2.70
2023-04-13T00:09:13.530Z,3.10
2023-04-13T00:11:43.577Z,2.80
2023-04-13T00:14:15.820Z,2.60
2023-04-13T00:16:59.069Z,2.70
2023-04-13T00:19:41.323Z,3.10
2023-04-13T00:22:14.090Z,3.20
2023-04-13T00:24:44.990Z,3.20
2023-04-13T00:27:19.030Z,3.20
2023-04-13T00:29:48.134Z,2.80
2023-04-13T00:32:26.618Z,3.10
2023-04-13T00:35:03.329Z,3.70
2023-04-13T00:37:46.940Z,2.70
2023-04-13T00:40:44.059Z,3.30
2023-04-13T00:43:18.390Z,3.20
2023-04-13T00:45:54.317Z,2.90
2023-04-13T00:48:34.710Z,2.80
2023-04-13T00:51:07.529Z,2.90
2023-04-13T00:53:41.463Z,3.20
2023-04-13T00:56:22.473Z,2.60
2023-04-13T00:58:54.537Z,2.60
2023-04-13T01:01:26.291Z,3.00
2023-04-13T01:04:03.213Z,2.90
2023-04-13T01:07:06.723Z,3.20
2023-04-13T01:09:59.666Z,3.00
2023-04-13T01:13:16.799Z,3.10
2023-04-13T01:16:15.489Z,4.10
2023-04-13T01:18:55.101Z,3.70
2023-04-13T01:21:34.013Z,3.60
2023-04-13T01:27:27.527Z,3.10
2023-04-13T01:30:00.594Z,3.80
2023-04-13T01:32:30.885Z,3.10
2023-04-13T01:35:11.232Z,3.00
2023-04-13T01:37:54.654Z,3.40
2023-04-13T01:40:30.199Z,3.60
2023-04-13T01:43:05.289Z,3.00
2023-04-13T01:46:10.860Z,3.10
2023-04-13T01:48:52.748Z,3.20
2023-04-13T01:51:33.259Z,3.10
2023-04-13T01:54:26.481Z,2.90
2023-04-13T01:57:00.061Z,3.40
2023-04-13T01:59:42.123Z,3.00
2023-04-13T02:02:22.521Z,3.40
2023-04-13T02:05:11.593Z,2.50
2023-04-13T02:14:07.752Z,3.30
2023-04-13T02:16:38.959Z,3.30
2023-04-13T02:19:32.069Z,3.70
2023-04-13T02:22:17.722Z,3.30
2023-04-13T02:24:59.588Z,3.30
2023-04-13T02:27:38.943Z,2.90
2023-04-13T02:30:14.911Z,3.50
2023-04-13T02:33:10.226Z,3.50
2023-04-13T02:35:49.052Z,3.00
2023-04-13T02:38:28.616Z,3.20
2023-04-13T02:41:37.844Z,3.80
2023-04-13T02:44:20.238Z,3.50
2023-04-13T02:46:58.289Z,2.90
2023-04-13T02:49:42.655Z,3.40
2023-04-13T02:52:26.394Z,3.80
2023-04-13T03:02:01.182Z,3.10
2023-04-13T03:04:36.988Z,4.10
2023-04-13T03:07:16.543Z,3.20
2023-04-13T03:10:25.654Z,3.30
2023-04-13T03:13:02.759Z,3.70
2023-04-13T03:15:33.651Z,3.20
2023-04-13T03:18:07.379Z,3.90
2023-04-13T03:21:39.664Z,3.40
2023-04-13T03:24:15.519Z,3.90
2023-04-13T03:26:51.066Z,3.70
2023-04-13T03:29:29.713Z,3.20
2023-04-13T03:32:06.674Z,4.10
2023-04-13T03:35:05.821Z,4.60
2023-04-13T03:37:43.303Z,4.80
2023-04-13T03:41:42.931Z,5.20
2023-04-13T03:44:20.280Z,3.90
2023-04-13T03:46:52.859Z,4.30
2023-04-13T03:49:34.581Z,3.70
2023-04-13T03:52:12.904Z,3.00
2023-04-13T03:55:11.054Z,3.40
2023-04-13T03:57:55.292Z,3.30
2023-04-13T04:00:36.893Z,3.20
2023-04-13T04:04:00.325Z,3.50
2023-04-13T04:07:13.067Z,3.60
2023-04-13T04:09:46.538Z,3.10
2023-04-13T04:12:19.047Z,3.60
2023-04-13T04:14:57.599Z,2.80
2023-04-13T04:18:00.719Z,3.80
2023-04-13T04:20:37.766Z,3.70
2023-04-13T04:23:11.374Z,3.50
2023-04-13T04:30:12.973Z,2.80
2023-04-13T04:32:55.179Z,3.10
2023-04-13T04:36:02.494Z,3.20
2023-04-13T04:39:37.893Z,2.60
2023-04-13T04:43:33.218Z,3.10
2023-04-13T04:46:16.307Z,2.60
2023-04-13T04:49:23.896Z,3.50
2023-04-13T04:52:02.799Z,3.70
2023-04-13T04:54:39.824Z,3.10
2023-04-13T04:57:19.241Z,3.00
2023-04-13T05:00:21.496Z,3.60
2023-04-13T05:03:13.681Z,3.00
2023-04-13T05:06:23.463Z,3.30
2023-04-13T05:10:22.126Z,3.60
2023-04-13T05:14:12.353Z,3.20
2023-04-13T05:17:31.493Z,3.70
2023-04-13T05:20:15.486Z,4.00
2023-04-13T05:23:22.582Z,4.40
2023-04-13T05:26:20.460Z,3.30
2023-04-13T05:29:01.140Z,3.80
2023-04-13T05:32:13.837Z,3.30
2023-04-13T05:34:59.316Z,3.10
2023-04-13T05:37:51.903Z,3.90
2023-04-13T05:48:48.115Z,4.30
2023-04-13T05:51:31.360Z,4.50
2023-04-13T05:54:54.596Z,4.90
2023-04-13T05:57:36.202Z,5.80
2023-04-13T06:00:50.839Z,4.20
2023-04-13T06:03:28.498Z,4.00
2023-04-13T06:06:00.370Z,3.50
2023-04-13T06:09:01.436Z,3.30
2023-04-13T06:15:53.119Z,3.20
2023-04-13T06:18:55.059Z,3.20
2023-04-13T06:22:02.256Z,3.50
2023-04-13T06:25:32.431Z,3.10
2023-04-13T06:28:35.974Z,3.60
2023-04-13T06:31:54.151Z,3.20
2023-04-13T06:35:32.684Z,3.70
2023-04-13T06:38:22.693Z,3.60
2023-04-13T06:41:07.912Z,3.40
2023-04-13T06:48:42.167Z,4.00
2023-04-13T06:51:16.307Z,4.00
2023-04-13T06:53:47.005Z,4.70
2023-04-13T06:57:09.239Z,5.40
2023-04-13T07:00:22.215Z,5.50
2023-04-13T07:04:13.272Z,7.10
2023-04-13T07:11:15.860Z,5.90
2023-04-13T07:33:02.085Z,5.30
2023-04-13T07:36:23.120Z,5.70
2023-04-13T07:39:08.501Z,5.10
2023-04-13T07:41:40.713Z,5.60
2023-04-13T07:44:40.515Z,6.10
2023-04-13T07:53:20.827Z,5.20
2023-04-13T07:56:11.264Z,5.50
2023-04-13T08:03:11.147Z,6.50
2023-04-13T08:05:52.235Z,6.80
2023-04-13T08:08:29.866Z,5.90
2023-04-13T08:11:21.791Z,6.80
2023-04-13T08:14:53.586Z,5.00
2023-04-13T08:23:12.639Z,6.30
2023-04-13T08:27:12.893Z,6.50
2023-04-13T08:30:05.809Z,5.30
2023-04-13T08:32:57.856Z,5.90
2023-04-13T08:35:53.264Z,5.60
2023-04-13T08:38:39.113Z,6.40
2023-04-13T08:42:03.883Z,5.80
2023-04-13T08:49:21.687Z,6.00
2023-04-13T08:52:39.987Z,5.20
2023-04-13T08:56:44.701Z,5.80
2023-04-13T08:59:38.735Z,5.60
2023-04-13T09:03:03.859Z,5.40
2023-04-13T09:06:25.501Z,5.50
2023-04-13T09:09:29.568Z,6.20
2023-04-13T09:12:51.727Z,5.60
2023-04-13T09:16:45.156Z,6.90
2023-04-13T09:20:30.192Z,5.20
2023-04-13T09:23:28.272Z,5.10
2023-04-13T09:31:20.638Z,5.60
2023-04-13T09:34:07.662Z,6.80
2023-04-13T09:37:58.634Z,5.90
2023-04-13T09:42:02.170Z,6.10
2023-04-13T09:49:09.712Z,6.10
2023-04-13T09:52:36.448Z,5.40
2023-04-13T09:56:02.734Z,6.00
2023-04-13T09:59:34.651Z,6.00
2023-04-13T10:02:57.685Z,5.70
2023-04-13T10:06:23.946Z,7.20
2023-04-13T10:14:16.150Z,5.30
2023-04-13T10:18:15.346Z,6.00
2023-04-13T10:20:49.834Z,6.10
2023-04-13T10:23:41.945Z,6.90
2023-04-13T10:27:25.204Z,6.80
2023-04-13T10:30:12.634Z,6.30
2023-04-13T10:34:05.799Z,4.50
2023-04-13T10:37:14.194Z,5.00
2023-04-13T10:40:24.974Z,4.00
2023-04-13T10:44:27.258Z,3.80
2023-04-13T10:47:58.593Z,4.10
2023-04-13T10:50:59.470Z,4.80
2023-04-13T10:54:36.650Z,3.20
2023-04-13T10:57:12.187Z,2.60
2023-04-13T11:00:45.463Z,3.70
2023-04-13T11:04:40.371Z,3.70
2023-04-13T11:07:40.357Z,4.10
2023-04-13T11:15:25.528Z,5.10
2023-04-13T11:19:19.824Z,5.20
2023-04-13T11:40:23.571Z,3.70
2023-04-13T11:43:47.813Z,4.50
2023-04-13T11:47:02.740Z,4.60
2023-04-13T11:53:45.492Z,2.80
2023-04-13T11:57:18.773Z,4.00
2023-04-13T12:01:13.915Z,3.20
2023-04-13T12:04:17.993Z,4.20
2023-04-13T12:06:55.219Z,4.30
2023-04-13T12:15:39.144Z,4.50
2023-04-13T12:18:37.154Z,4.40
2023-04-13T12:21:40.173Z,4.50
2023-04-13T12:25:15.552Z,5.60
2023-04-13T12:28:16.495Z,7.20
2023-04-13T12:31:54.164Z,5.70
2023-04-13T12:35:20.072Z,6.70
2023-04-13T12:38:02.915Z,7.10
2023-04-13T12:44:22.361Z,5.40
2023-04-13T12:46:54.161Z,5.80
2023-04-13T12:49:52.089Z,6.00
2023-04-13T12:53:01.031Z,5.90
2023-04-13T12:55:58.440Z,6.00
2023-04-13T12:58:41.762Z,6.50
2023-04-13T13:01:20.154Z,6.70
2023-04-13T13:04:44.294Z,5.90
2023-04-13T13:07:15.592Z,6.40
2023-04-13T13:10:29.616Z,5.10
2023-04-13T13:16:49.780Z,6.50
2023-04-13T13:19:23.976Z,6.00
2023-04-13T13:22:14.864Z,5.80
2023-04-13T13:25:19.308Z,5.30
2023-04-13T13:30:39.061Z,5.40
2023-04-13T13:34:37.087Z,5.10
2023-04-13T13:37:09.501Z,6.10
2023-04-13T13:50:12.409Z,7.50
2023-04-13T13:54:06.602Z,6.70
2023-04-13T13:58:04.167Z,5.20
2023-04-13T14:05:25.953Z,5.30
2023-04-13T14:08:46.503Z,5.40
2023-04-13T14:11:26.505Z,4.80
2023-04-13T14:14:31.210Z,5.30
2023-04-13T14:21:28.894Z,6.40
2023-04-13T14:33:20.283Z,5.60
2023-04-13T14:37:00.253Z,5.30
2023-04-13T15:03:02.957Z,4.90
2023-04-13T15:06:05.328Z,5.00
2023-04-13T15:08:49.473Z,4.40
2023-04-13T15:11:53.966Z,4.80
2023-04-13T15:14:35.820Z,4.80
2023-04-13T15:17:56.608Z,4.30
2023-04-13T15:20:47.386Z,4.40
2023-04-13T15:23:30.738Z,5.30
2023-04-13T15:27:31.929Z,4.70
2023-04-13T15:35:23.304Z,4.70
2023-04-13T15:38:42.371Z,4.20
2023-04-13T15:46:24.405Z,6.20
2023-04-13T15:49:35.196Z,5.30
2023-04-13T15:52:44.469Z,5.40
2023-04-13T15:56:16.673Z,4.50
2023-04-13T15:59:33.977Z,5.40
2023-04-13T16:02:15.289Z,5.20
2023-04-13T16:04:54.837Z,6.00
2023-04-13T16:07:40.467Z,6.20
2023-04-13T16:11:27.064Z,5.40
2023-04-13T16:14:20.227Z,5.40
2023-04-13T16:17:02.202Z,5.60
2023-04-13T16:20:54.542Z,6.00
2023-04-13T16:24:21.627Z,6.20
2023-04-13T16:27:00.502Z,5.30
2023-04-13T16:30:36.472Z,5.30
2023-04-13T16:33:48.999Z,5.70
2023-04-13T16:36:47.872Z,6.50
2023-04-13T16:40:10.396Z,7.00
2023-04-13T16:47:24.766Z,6.10
2023-04-13T16:50:28.381Z,6.30
2023-04-13T16:53:19.213Z,6.60
2023-04-13T16:56:29.962Z,5.70
2023-04-13T16:59:19.716Z,5.70
2023-04-13T17:02:31.239Z,5.70
2023-04-13T17:05:38.634Z,5.50
2023-04-13T17:09:11.975Z,5.60
2023-04-13T17:11:50.070Z,7.50
2023-04-13T17:24:09.914Z,6.80
2023-04-13T17:31:16.352Z,6.90
2023-04-13T17:42:30.443Z,7.20
2023-04-13T17:50:31.173Z,6.60
2023-04-13T17:53:33.626Z,6.00
2023-04-13T18:06:03.044Z,6.40
2023-04-13T18:10:03.533Z,7.00
2023-04-13T18:13:30.397Z,6.40
2023-04-13T18:16:14.421Z,6.00
2023-04-13T18:19:34.849Z,7.50
2023-04-13T18:32:10.943Z,6.00
2023-04-13T18:35:05.968Z,6.00
2023-04-13T18:38:09.191Z,4.90
2023-04-13T18:41:34.056Z,5.30
2023-04-13T18:44:31.891Z,5.60
2023-04-13T18:47:39.861Z,5.00
2023-04-13T18:55:54.085Z,4.30
2023-04-13T18:59:28.698Z,4.30
2023-04-13T19:11:10.974Z,4.30
2023-04-13T19:14:07.491Z,4.30
2023-04-13T19:16:56.512Z,4.50
2023-04-13T19:29:16.993Z,4.10
2023-04-13T19:37:55.980Z,4.70
2023-04-13T19:40:28.972Z,4.30
2023-04-13T19:43:56.703Z,5.00
2023-04-13T19:47:22.265Z,4.20
2023-04-13T19:50:42.230Z,4.70
2023-04-13T19:54:12.605Z,4.60
2023-04-13T19:58:13.049Z,4.10
2023-04-13T20:00:59.441Z,5.00
2023-04-13T20:04:05.453Z,4.70
2023-04-13T20:06:59.627Z,5.10
2023-04-13T20:13:30.795Z,6.00
2023-04-13T20:16:15.513Z,5.20
2023-04-13T20:19:00.243Z,5.80
2023-04-13T20:23:02.673Z,5.80
2023-04-13T20:26:29.935Z,5.30
2023-04-13T20:29:50.791Z,6.00
2023-04-13T20:32:35.192Z,6.00
2023-04-13T20:35:18.310Z,6.90
2023-04-13T20:43:54.288Z,6.20
2023-04-13T20:47:22.265Z,6.30
2023-04-13T20:54:11.570Z,6.20
2023-04-13T21:00:55.997Z,5.80
2023-04-13T21:03:45.395Z,6.50
2023-04-13T21:06:37.685Z,6.10
2023-04-13T21:09:40.182Z,5.60
2023-04-13T21:12:47.753Z,5.30
2023-04-13T21:15:21.692Z,5.40
2023-04-13T21:18:28.379Z,6.30
2023-04-13T21:30:17.349Z,6.30
2023-04-13T21:33:06.377Z,6.30
2023-04-13T21:36:51.175Z,6.40
2023-04-13T21:40:15.797Z,5.60
2023-04-13T21:42:54.049Z,5.30
2023-04-13T21:46:54.769Z,5.10
2023-04-13T21:51:04.180Z,6.80
2023-04-13T22:02:40.385Z,5.60
2023-04-13T22:06:06.942Z,5.50
2023-04-13T22:08:40.610Z,5.90
2023-04-13T22:11:12.756Z,6.40
2023-04-13T22:14:17.496Z,5.60
2023-04-13T22:17:54.346Z,5.60
2023-04-13T22:21:45.359Z,5.90
2023-04-13T22:24:56.226Z,5.80
2023-04-13T22:27:56.605Z,5.70
2023-04-13T22:33:07.256Z,6.40
2023-04-13T22:35:44.511Z,5.60
2023-04-13T22:38:41.216Z,5.40
2023-04-13T22:41:19.022Z,6.60
2023-04-13T22:44:21.122Z,5.80
2023-04-13T22:46:54.290Z,6.00
2023-04-13T22:49:55.252Z,5.10
2023-04-13T22:53:10.231Z,5.80
2023-04-13T22:57:06.398Z,6.30
2023-04-13T22:59:59.524Z,5.50
2023-04-13T23:03:14.984Z,5.60
2023-04-13T23:05:50.107Z,5.30
2023-04-13T23:08:25.943Z,6.20
2023-04-13T23:11:33.870Z,5.80
2023-04-13T23:14:46.506Z,5.70
2023-04-13T23:17:54.310Z,5.70
2023-04-13T23:20:37.044Z,6.00
2023-04-13T23:23:15.256Z,7.00
2023-04-13T23:25:52.697Z,5.50
2023-04-13T23:29:03.033Z,5.60
2023-04-13T23:31:47.549Z,6.80
2023-04-13T23:34:23.312Z,5.70
2023-04-13T23:37:00.061Z,5.80
2023-04-13T23:39:38.194Z,6.00
2023-04-13T23:42:16.258Z,5.50
2023-04-13T23:45:41.485Z,5.30
2023-04-13T23:48:39.860Z,6.10
2023-04-13T23:51:21.161Z,6.00
2023-04-13T23:56:43.817Z,7.00
2023-04-13T23:59:14.055Z,5.80
